createdAt,value
2023-03-24T00:01:27.316Z,80.84
2023-03-24T00:03:55.891Z,80.80
2023-03-24T00:06:26.864Z,80.99
2023-03-24T00:08:55.574Z,81.25
2023-03-24T00:11:25.636Z,81.22
2023-03-24T00:13:58.711Z,81.03
2023-03-24T00:16:27.456Z,81.29
2023-03-24T00:18:56.184Z,81.22
2023-03-24T00:21:26.649Z,81.11
2023-03-24T00:23:58.459Z,81.57
2023-03-24T00:26:28.452Z,81.25
2023-03-24T00:28:59.585Z,81.36
2023-03-24T00:31:28.124Z,81.84
2023-03-24T00:33:56.625Z,81.25
2023-03-24T00:36:29.173Z,81.17
2023-03-24T00:38:58.202Z,81.18
2023-03-24T00:41:28.168Z,81.42
2023-03-24T00:44:00.185Z,81.27
2023-03-24T00:46:29.375Z,81.41
2023-03-24T00:49:03.768Z,81.21
2023-03-24T00:51:34.374Z,81.13
2023-03-24T00:54:04.272Z,80.96
2023-03-24T00:56:37.969Z,81.10
2023-03-24T00:59:10.607Z,80.81
2023-03-24T01:01:41.496Z,81.73
2023-03-24T01:04:11.507Z,81.40
2023-03-24T01:06:41.334Z,81.44
2023-03-24T01:09:10.814Z,81.62
2023-03-24T01:11:41.765Z,81.23
2023-03-24T01:14:12.941Z,81.60
2023-03-24T01:16:42.586Z,81.80
2023-03-24T01:19:11.493Z,82.04
2023-03-24T01:21:42.360Z,82.12
2023-03-24T01:24:11.301Z,82.10
2023-03-24T01:26:39.768Z,82.09
2023-03-24T01:29:08.314Z,82.37
2023-03-24T01:31:39.420Z,82.46
2023-03-24T01:34:07.985Z,82.46
2023-03-24T01:36:36.428Z,82.51
2023-03-24T01:39:05.711Z,82.83
2023-03-24T01:41:36.635Z,82.98
2023-03-24T01:44:27.425Z,82.28
2023-03-24T01:46:58.176Z,83.09
2023-03-24T01:49:30.760Z,82.91
2023-03-24T01:52:02.226Z,82.97
2023-03-24T01:54:37.183Z,83.00
2023-03-24T01:57:14.178Z,82.79
2023-03-24T01:59:47.676Z,83.34
2023-03-24T02:02:25.194Z,83.92
2023-03-24T02:05:03.154Z,83.72
2023-03-24T02:07:47.614Z,84.38
2023-03-24T02:10:20.269Z,84.19
2023-03-24T02:12:49.068Z,83.74
2023-03-24T02:15:20.786Z,83.84
2023-03-24T02:18:06.441Z,83.58
2023-03-24T02:21:14.550Z,83.71
2023-03-24T02:24:19.269Z,83.67
2023-03-24T02:26:57.305Z,84.04
2023-03-24T02:30:05.110Z,83.86
2023-03-24T02:33:10.122Z,83.92
2023-03-24T02:36:23.682Z,83.61
2023-03-24T02:39:27.119Z,83.88
2023-03-24T02:42:02.128Z,84.51
2023-03-24T02:44:40.715Z,84.45
2023-03-24T02:47:17.111Z,84.02
2023-03-24T02:49:56.045Z,84.23
2023-03-24T02:52:36.430Z,84.17
2023-03-24T02:55:16.626Z,84.06
2023-03-24T02:57:51.597Z,84.24
2023-03-24T03:00:47.665Z,84.43
2023-03-24T03:03:49.796Z,84.33
2023-03-24T03:06:24.288Z,84.77
2023-03-24T03:08:54.984Z,84.82
2023-03-24T03:11:24.894Z,84.99
2023-03-24T03:13:57.883Z,85.12
2023-03-24T03:16:34.920Z,85.08
2023-03-24T03:19:10.155Z,85.48
2023-03-24T03:21:42.965Z,84.92
2023-03-24T03:24:16.678Z,84.68
2023-03-24T03:26:49.111Z,84.75
2023-03-24T03:29:22.222Z,84.95
2023-03-24T03:31:59.920Z,85.02
2023-03-24T03:34:37.754Z,85.22
2023-03-24T03:37:09.481Z,85.01
2023-03-24T03:39:46.637Z,84.82
2023-03-24T03:42:17.312Z,84.60
2023-03-24T03:44:46.963Z,85.01
2023-03-24T03:47:16.623Z,84.96
2023-03-24T03:49:47.577Z,84.75
2023-03-24T03:52:17.087Z,85.17
2023-03-24T03:54:46.823Z,85.22
2023-03-24T03:57:17.270Z,85.50
2023-03-24T04:00:17.427Z,85.20
2023-03-24T04:03:28.333Z,84.93
2023-03-24T04:06:02.284Z,85.06
2023-03-24T04:08:42.279Z,84.88
2023-03-24T04:11:52.190Z,84.53
2023-03-24T04:14:59.385Z,85.19
2023-03-24T04:18:33.528Z,84.74
2023-03-24T04:21:23.313Z,84.97
2023-03-24T04:24:05.437Z,85.07
2023-03-24T04:26:42.594Z,84.72
2023-03-24T04:29:18.028Z,85.40
2023-03-24T04:31:53.485Z,84.98
2023-03-24T04:34:29.555Z,85.18
2023-03-24T04:37:12.573Z,84.97
2023-03-24T04:40:06.238Z,84.59
2023-03-24T04:42:38.684Z,84.37
2023-03-24T04:45:09.851Z,84.72
2023-03-24T04:48:02.183Z,84.44
2023-03-24T04:50:45.688Z,84.93
2023-03-24T04:53:19.342Z,84.62
2023-03-24T04:56:14.970Z,84.76
2023-03-24T04:59:07.241Z,85.61
2023-03-24T05:01:38.164Z,85.41
2023-03-24T05:04:37.388Z,85.31
2023-03-24T05:07:19.477Z,85.40
2023-03-24T05:09:51.101Z,85.08
2023-03-24T05:12:19.768Z,85.29
2023-03-24T05:15:08.173Z,85.18
2023-03-24T05:17:38.085Z,85.18
2023-03-24T05:20:11.024Z,85.03
2023-03-24T05:22:42.399Z,85.13
2023-03-24T05:25:11.231Z,85.13
2023-03-24T05:27:39.628Z,84.91
2023-03-24T05:30:21.143Z,85.44
2023-03-24T05:32:52.588Z,85.11
2023-03-24T05:35:22.655Z,85.25
2023-03-24T05:37:51.173Z,84.91
2023-03-24T05:40:19.827Z,85.23
2023-03-24T05:42:55.497Z,85.13
2023-03-24T05:45:27.293Z,85.26
2023-03-24T05:47:56.009Z,85.42
2023-03-24T05:50:38.311Z,85.53
2023-03-24T05:53:07.554Z,85.34
2023-03-24T05:55:58.828Z,84.79
2023-03-24T05:58:47.268Z,84.88
2023-03-24T06:01:18.372Z,85.05
2023-03-24T06:03:49.574Z,85.15
2023-03-24T06:06:19.697Z,85.04
2023-03-24T06:08:48.309Z,84.79
2023-03-24T06:11:18.780Z,85.06
2023-03-24T06:13:59.200Z,84.70
2023-03-24T06:16:29.925Z,84.53
2023-03-24T06:19:02.963Z,84.46
2023-03-24T06:21:54.201Z,84.54
2023-03-24T06:24:27.400Z,84.14
2023-03-24T06:27:02.531Z,83.86
2023-03-24T06:29:34.969Z,83.74
2023-03-24T06:32:03.719Z,83.73
2023-03-24T06:34:34.649Z,84.33
2023-03-24T06:37:19.004Z,84.08
2023-03-24T06:39:47.628Z,84.09
2023-03-24T06:42:18.786Z,84.17
2023-03-24T06:44:47.374Z,83.79
2023-03-24T06:47:16.634Z,83.90
2023-03-24T06:49:45.226Z,84.13
2023-03-24T06:52:14.227Z,84.38
2023-03-24T06:54:44.728Z,84.03
2023-03-24T06:57:13.266Z,84.07
2023-03-24T07:00:14.527Z,84.36
2023-03-24T07:02:56.342Z,84.00
2023-03-24T07:05:25.079Z,84.31
2023-03-24T07:08:27.742Z,84.22
2023-03-24T07:10:47.171Z,83.47
2023-03-24T07:13:15.766Z,83.53
2023-03-24T07:15:44.478Z,83.43
2023-03-24T07:18:14.160Z,83.44
2023-03-24T07:20:45.253Z,83.26
2023-03-24T07:23:16.280Z,83.45
2023-03-24T07:25:49.186Z,82.92
2023-03-24T07:28:23.837Z,83.09
2023-03-24T07:30:54.920Z,82.91
2023-03-24T07:33:25.416Z,83.38
2023-03-24T07:35:57.559Z,82.70
2023-03-24T07:38:27.896Z,82.96
2023-03-24T07:41:03.414Z,82.76
2023-03-24T07:43:33.991Z,82.85
2023-03-24T07:46:02.351Z,83.04
2023-03-24T07:48:31.135Z,82.91
2023-03-24T07:50:59.666Z,82.72
2023-03-24T07:53:54.528Z,82.66
2023-03-24T07:56:46.993Z,82.70
2023-03-24T07:59:15.822Z,82.58
2023-03-24T08:03:21.316Z,82.79
2023-03-24T08:05:22.094Z,83.25
2023-03-24T08:07:58.241Z,82.75
2023-03-24T08:10:28.979Z,83.25
2023-03-24T08:12:59.640Z,82.46
2023-03-24T08:15:28.761Z,82.60
2023-03-24T08:17:57.687Z,82.50
2023-03-24T08:20:27.462Z,82.90
2023-03-24T08:22:55.989Z,82.44
2023-03-24T08:25:26.958Z,82.43
2023-03-24T08:27:56.034Z,82.57
2023-03-24T08:30:28.415Z,82.62
2023-03-24T08:32:59.421Z,82.10
2023-03-24T08:35:31.651Z,82.07
2023-03-24T08:38:04.503Z,82.28
2023-03-24T08:40:36.093Z,82.17
2023-03-24T08:43:08.640Z,82.06
2023-03-24T08:45:38.858Z,81.72
2023-03-24T08:48:10.004Z,81.69
2023-03-24T08:50:41.842Z,81.42
2023-03-24T08:53:12.549Z,81.50
2023-03-24T08:55:43.379Z,81.77
2023-03-24T08:58:15.108Z,81.55
2023-03-24T09:00:46.164Z,81.25
2023-03-24T09:03:18.668Z,81.30
2023-03-24T09:05:48.045Z,80.85
2023-03-24T09:08:18.518Z,80.54
2023-03-24T09:10:47.750Z,80.87
2023-03-24T09:13:16.901Z,81.22
2023-03-24T09:15:49.835Z,80.22
2023-03-24T09:18:20.115Z,80.43
2023-03-24T09:20:49.222Z,80.16
2023-03-24T09:23:17.898Z,80.29
2023-03-24T09:25:47.063Z,79.68
2023-03-24T09:28:16.341Z,79.90
2023-03-24T09:30:45.613Z,80.29
2023-03-24T09:33:15.545Z,80.45
2023-03-24T09:35:44.180Z,80.47
2023-03-24T09:38:12.768Z,80.35
2023-03-24T09:40:41.964Z,80.30
2023-03-24T09:43:20.330Z,80.27
2023-03-24T09:45:54.001Z,79.96
2023-03-24T09:48:35.479Z,79.81
2023-03-24T09:51:06.984Z,79.91
2023-03-24T09:53:42.265Z,80.07
2023-03-24T09:56:15.452Z,80.01
2023-03-24T09:58:44.947Z,79.45
2023-03-24T10:01:18.460Z,79.44
2023-03-24T10:03:48.471Z,79.03
2023-03-24T10:06:22.967Z,79.33
2023-03-24T10:08:57.617Z,79.40
2023-03-24T10:11:34.514Z,79.15
2023-03-24T10:14:19.057Z,79.33
2023-03-24T10:16:54.339Z,79.49
2023-03-24T10:19:38.509Z,78.96
2023-03-24T10:22:18.981Z,78.39
2023-03-24T10:24:54.536Z,77.51
2023-03-24T10:27:29.856Z,75.66
2023-03-24T10:30:06.725Z,75.46
2023-03-24T10:32:36.945Z,73.49
2023-03-24T10:35:10.581Z,74.45
2023-03-24T10:37:39.405Z,74.32
2023-03-24T10:40:18.145Z,73.47
2023-03-24T10:43:07.095Z,72.79
2023-03-24T10:45:40.772Z,72.43
2023-03-24T10:48:09.646Z,71.88
2023-03-24T10:50:44.287Z,71.35
2023-03-24T10:53:20.047Z,70.67
2023-03-24T10:55:50.885Z,70.87
2023-03-24T10:58:29.657Z,70.59
2023-03-24T11:01:00.195Z,70.54
2023-03-24T11:03:31.054Z,70.87
2023-03-24T11:06:02.760Z,70.00
2023-03-24T11:08:36.232Z,70.52
2023-03-24T11:11:16.005Z,69.88
2023-03-24T11:13:55.920Z,69.28
2023-03-24T11:16:30.376Z,68.80
2023-03-24T11:19:00.578Z,68.98
2023-03-24T11:21:33.299Z,68.23
2023-03-24T11:24:04.346Z,67.49
2023-03-24T11:26:35.101Z,67.55
2023-03-24T11:29:07.727Z,67.81
2023-03-24T11:31:39.391Z,66.89
2023-03-24T11:34:11.095Z,67.52
2023-03-24T11:36:49.811Z,67.31
2023-03-24T11:39:23.746Z,67.54
2023-03-24T11:42:00.171Z,66.61
2023-03-24T11:44:31.219Z,66.50
2023-03-24T11:47:04.503Z,66.28
2023-03-24T11:49:36.423Z,66.49
2023-03-24T11:52:13.710Z,66.81
2023-03-24T11:54:42.217Z,66.23
2023-03-24T11:57:15.592Z,66.36
2023-03-24T11:59:50.548Z,65.77
2023-03-24T12:02:31.200Z,65.73
2023-03-24T12:05:12.573Z,65.22
2023-03-24T12:07:59.486Z,65.75
2023-03-24T12:10:39.051Z,65.71
2023-03-24T12:13:18.995Z,65.81
2023-03-24T12:16:08.914Z,65.00
2023-03-24T12:18:56.028Z,65.81
2023-03-24T12:21:37.170Z,66.08
2023-03-24T12:24:18.671Z,65.67
2023-03-24T12:26:48.382Z,65.67
2023-03-24T12:29:45.308Z,65.52
2023-03-24T12:32:41.718Z,65.89
2023-03-24T12:35:39.563Z,65.64
2023-03-24T12:38:27.235Z,65.97
2023-03-24T12:41:25.152Z,65.80
2023-03-24T12:44:10.881Z,63.28
2023-03-24T12:46:48.877Z,63.95
2023-03-24T12:49:31.235Z,63.49
2023-03-24T12:52:17.956Z,63.73
2023-03-24T12:54:54.885Z,63.23
2023-03-24T12:57:29.711Z,63.26
2023-03-24T13:00:02.212Z,63.40
2023-03-24T13:02:35.585Z,63.44
2023-03-24T13:05:08.479Z,62.99
2023-03-24T13:07:39.437Z,62.79
2023-03-24T13:10:15.481Z,61.59
2023-03-24T13:12:52.400Z,61.75
2023-03-24T13:15:27.307Z,61.69
2023-03-24T13:18:06.329Z,62.50
2023-03-24T13:20:42.113Z,62.99
2023-03-24T13:23:25.387Z,62.58
2023-03-24T13:26:01.952Z,62.47
2023-03-24T13:28:46.593Z,62.02
2023-03-24T13:31:17.692Z,62.27
2023-03-24T13:33:47.444Z,62.17
2023-03-24T13:36:35.716Z,61.72
2023-03-24T13:39:08.540Z,61.13
2023-03-24T13:41:39.821Z,61.10
2023-03-24T13:44:16.895Z,60.34
2023-03-24T13:46:53.689Z,61.18
2023-03-24T13:49:23.058Z,61.32
2023-03-24T13:51:51.652Z,61.08
2023-03-24T13:54:23.571Z,60.41
2023-03-24T13:56:57.435Z,60.00
2023-03-24T13:59:30.386Z,59.76
2023-03-24T14:02:23.726Z,59.87
2023-03-24T14:05:05.947Z,58.36
2023-03-24T14:07:44.737Z,58.87
2023-03-24T14:10:43.772Z,58.45
2023-03-24T14:13:47.480Z,58.64
2023-03-24T14:16:45.680Z,59.35
2023-03-24T14:19:28.690Z,58.90
2023-03-24T14:22:10.646Z,58.94
2023-03-24T14:24:39.584Z,59.29
2023-03-24T14:27:38.726Z,58.04
2023-03-24T14:30:20.282Z,58.57
2023-03-24T14:32:52.825Z,59.08
2023-03-24T14:35:26.541Z,58.92
2023-03-24T14:37:57.931Z,59.46
2023-03-24T14:40:29.687Z,60.09
2023-03-24T14:43:05.575Z,59.78
2023-03-24T14:45:52.367Z,59.93
2023-03-24T14:48:33.325Z,59.73
2023-03-24T14:51:10.220Z,59.77
2023-03-24T14:53:40.592Z,59.78
2023-03-24T14:56:16.290Z,60.08
2023-03-24T14:58:49.041Z,60.15
2023-03-24T15:01:19.151Z,60.22
2023-03-24T15:03:59.739Z,60.25
2023-03-24T15:06:28.369Z,60.74
2023-03-24T15:08:58.996Z,60.55
2023-03-24T15:11:31.612Z,60.50
2023-03-24T15:14:02.043Z,60.57
2023-03-24T15:16:32.166Z,60.79
2023-03-24T15:19:09.530Z,61.10
2023-03-24T15:21:39.869Z,61.44
2023-03-24T15:24:28.095Z,61.54
2023-03-24T15:27:14.964Z,61.33
2023-03-24T15:29:45.219Z,61.60
2023-03-24T15:32:19.615Z,61.57
2023-03-24T15:34:52.900Z,61.51
2023-03-24T15:37:23.443Z,60.89
2023-03-24T15:39:59.114Z,59.67
2023-03-24T15:42:30.542Z,59.61
2023-03-24T15:45:11.228Z,59.56
2023-03-24T15:47:42.372Z,60.14
2023-03-24T15:50:32.436Z,59.57
2023-03-24T15:53:03.516Z,59.70
2023-03-24T15:55:34.988Z,59.36
2023-03-24T15:58:22.009Z,59.54
2023-03-24T16:00:53.751Z,60.01
2023-03-24T16:03:26.908Z,60.42
2023-03-24T16:05:58.219Z,59.81
2023-03-24T16:08:29.689Z,59.89
2023-03-24T16:11:00.036Z,59.29
2023-03-24T16:13:29.120Z,59.64
2023-03-24T16:15:59.427Z,59.59
2023-03-24T16:18:33.341Z,59.74
2023-03-24T16:21:05.171Z,59.62
2023-03-24T16:23:34.214Z,59.78
2023-03-24T16:26:02.552Z,59.87
2023-03-24T16:28:32.789Z,59.84
2023-03-24T16:31:04.358Z,59.41
2023-03-24T16:33:34.050Z,59.61
2023-03-24T16:36:03.834Z,59.04
2023-03-24T16:38:33.242Z,59.34
2023-03-24T16:41:02.151Z,59.52
2023-03-24T16:43:33.368Z,59.68
2023-03-24T16:46:03.227Z,59.84
2023-03-24T16:48:33.700Z,60.18
2023-03-24T16:51:04.056Z,60.66
2023-03-24T16:53:32.430Z,60.40
2023-03-24T16:56:00.807Z,60.79
2023-03-24T16:58:30.413Z,61.12
2023-03-24T17:00:59.132Z,61.81
2023-03-24T17:03:30.237Z,62.38
2023-03-24T17:05:59.515Z,62.81
2023-03-24T17:08:29.827Z,63.09
2023-03-24T17:10:58.322Z,63.56
2023-03-24T17:13:26.968Z,64.38
2023-03-24T17:15:56.201Z,64.63
2023-03-24T17:18:24.565Z,64.88
2023-03-24T17:20:53.067Z,64.73
2023-03-24T17:23:22.159Z,64.76
2023-03-24T17:25:51.988Z,65.10
2023-03-24T17:28:20.448Z,65.12
2023-03-24T17:30:49.000Z,65.47
2023-03-24T17:33:17.673Z,65.50
2023-03-24T17:35:46.977Z,65.38
2023-03-24T17:38:16.726Z,65.85
2023-03-24T17:40:46.746Z,66.12
2023-03-24T17:43:16.774Z,66.24
2023-03-24T17:45:45.639Z,66.37
2023-03-24T17:48:14.024Z,66.70
2023-03-24T17:50:42.371Z,66.62
2023-03-24T17:53:13.918Z,66.70
2023-03-24T17:55:42.382Z,66.93
2023-03-24T17:58:11.058Z,67.18
2023-03-24T18:00:41.630Z,66.07
2023-03-24T18:03:10.164Z,65.28
2023-03-24T18:05:38.958Z,64.13
2023-03-24T18:08:08.504Z,61.94
2023-03-24T18:10:37.952Z,60.52
2023-03-24T18:13:07.153Z,60.50
2023-03-24T18:15:36.044Z,59.80
2023-03-24T18:18:06.367Z,59.48
2023-03-24T18:20:36.421Z,58.45
2023-03-24T18:23:04.989Z,57.88
2023-03-24T18:25:33.666Z,56.93
2023-03-24T18:28:02.652Z,56.76
2023-03-24T18:30:32.362Z,56.29
2023-03-24T18:33:01.847Z,56.27
2023-03-24T18:35:32.186Z,55.84
2023-03-24T18:38:00.638Z,55.97
2023-03-24T18:40:29.008Z,55.78
2023-03-24T18:42:57.446Z,55.42
2023-03-24T18:45:25.788Z,52.19
2023-03-24T18:47:54.398Z,53.57
2023-03-24T18:50:22.769Z,53.82
2023-03-24T18:52:52.628Z,53.98
2023-03-24T18:55:24.320Z,54.19
2023-03-24T18:57:52.823Z,53.72
2023-03-24T19:00:21.958Z,54.33
2023-03-24T19:02:50.367Z,53.00
2023-03-24T19:05:19.310Z,53.78
2023-03-24T19:07:48.666Z,54.82
2023-03-24T19:10:18.722Z,55.08
2023-03-24T19:12:47.078Z,55.37
2023-03-24T19:15:15.555Z,55.93
2023-03-24T19:17:44.086Z,56.05
2023-03-24T19:20:14.055Z,56.71
2023-03-24T19:22:42.505Z,57.12
2023-03-24T19:25:11.100Z,57.91
2023-03-24T19:27:40.999Z,58.34
2023-03-24T19:30:11.733Z,58.39
2023-03-24T19:32:40.273Z,58.59
2023-03-24T19:35:09.539Z,58.40
2023-03-24T19:37:38.186Z,59.22
2023-03-24T19:40:09.039Z,59.86
2023-03-24T19:42:39.940Z,59.59
2023-03-24T19:45:11.903Z,60.06
2023-03-24T19:47:40.610Z,60.90
2023-03-24T19:50:09.906Z,61.38
2023-03-24T19:52:38.349Z,61.39
2023-03-24T19:55:07.437Z,61.28
2023-03-24T19:57:35.858Z,61.25
2023-03-24T20:00:06.259Z,61.51
2023-03-24T20:02:36.405Z,61.23
2023-03-24T20:05:05.192Z,61.40
2023-03-24T20:07:33.601Z,61.32
2023-03-24T20:10:01.981Z,61.25
2023-03-24T20:12:31.682Z,62.29
2023-03-24T20:15:02.411Z,62.37
2023-03-24T20:17:37.385Z,62.58
2023-03-24T20:20:10.394Z,63.39
2023-03-24T20:22:42.217Z,63.16
2023-03-24T20:25:11.912Z,63.87
2023-03-24T20:27:40.339Z,63.68
2023-03-24T20:30:09.909Z,63.61
2023-03-24T20:32:38.411Z,64.21
2023-03-24T20:35:09.318Z,64.24
2023-03-24T20:37:37.827Z,64.19
2023-03-24T20:40:09.693Z,64.56
2023-03-24T20:42:39.152Z,64.55
2023-03-24T20:45:08.959Z,64.57
2023-03-24T20:47:37.879Z,65.59
2023-03-24T20:50:09.398Z,66.05
2023-03-24T20:52:37.932Z,65.82
2023-03-24T20:55:08.887Z,65.27
2023-03-24T20:57:37.606Z,65.00
2023-03-24T21:00:13.825Z,65.26
2023-03-24T21:02:43.392Z,65.99
2023-03-24T21:05:13.612Z,66.40
2023-03-24T21:07:44.033Z,66.80
2023-03-24T21:10:12.693Z,66.51
2023-03-24T21:12:52.749Z,66.38
2023-03-24T21:15:25.019Z,66.30
2023-03-24T21:17:53.917Z,66.21
2023-03-24T21:20:26.979Z,66.31
2023-03-24T21:22:56.055Z,66.76
2023-03-24T21:25:26.419Z,66.67
2023-03-24T21:27:55.276Z,66.82
2023-03-24T21:30:24.294Z,66.64
2023-03-24T21:32:54.615Z,66.95
2023-03-24T21:35:25.198Z,66.96
2023-03-24T21:37:54.655Z,67.07
2023-03-24T21:40:24.712Z,66.88
2023-03-24T21:42:53.939Z,67.24
2023-03-24T21:45:24.267Z,66.53
2023-03-24T21:47:55.447Z,66.62
2023-03-24T21:50:25.905Z,66.92
2023-03-24T21:52:55.545Z,67.06
2023-03-24T21:55:26.987Z,67.27
2023-03-24T21:57:56.781Z,67.39
2023-03-24T22:00:30.034Z,67.88
2023-03-24T22:02:58.595Z,67.92
2023-03-24T22:05:29.228Z,67.47
2023-03-24T22:07:57.730Z,67.55
2023-03-24T22:10:30.265Z,68.10
2023-03-24T22:12:58.691Z,67.88
2023-03-24T22:15:27.037Z,67.69
2023-03-24T22:17:55.513Z,68.26
2023-03-24T22:20:24.608Z,67.60
2023-03-24T22:22:56.274Z,68.62
2023-03-24T22:25:24.759Z,68.83
2023-03-24T22:27:55.439Z,68.38
2023-03-24T22:30:24.459Z,68.79
2023-03-24T22:32:52.914Z,69.20
2023-03-24T22:35:23.376Z,69.04
2023-03-24T22:37:52.026Z,68.02
2023-03-24T22:40:22.043Z,68.80
2023-03-24T22:42:50.466Z,68.21
2023-03-24T22:45:19.415Z,68.79
2023-03-24T22:47:48.398Z,68.30
2023-03-24T22:50:17.249Z,68.75
2023-03-24T22:52:45.569Z,68.20
2023-03-24T22:55:13.986Z,69.40
2023-03-24T22:57:43.779Z,69.11
2023-03-24T23:00:13.047Z,68.65
2023-03-24T23:02:41.664Z,68.89
2023-03-24T23:05:10.799Z,69.29
2023-03-24T23:07:39.398Z,69.23
2023-03-24T23:10:08.614Z,69.70
2023-03-24T23:12:37.816Z,69.21
2023-03-24T23:15:10.970Z,69.05
2023-03-24T23:17:39.730Z,68.92
2023-03-24T23:20:10.077Z,69.72
2023-03-24T23:22:39.050Z,69.58
2023-03-24T23:25:08.473Z,69.52
2023-03-24T23:27:37.905Z,69.73
2023-03-24T23:30:10.156Z,70.40
2023-03-24T23:32:40.103Z,70.08
2023-03-24T23:35:09.964Z,70.29
2023-03-24T23:37:39.666Z,70.78
2023-03-24T23:40:13.011Z,70.34
2023-03-24T23:42:42.449Z,70.45
2023-03-24T23:45:14.784Z,70.35
2023-03-24T23:47:44.953Z,69.30
2023-03-24T23:50:14.311Z,69.92
2023-03-24T23:52:44.084Z,70.06
2023-03-24T23:55:12.939Z,70.01
2023-03-24T23:57:42.348Z,69.88
